Terminal Aerodrome Forecast
Issued by NWS Mt. Holly, NJ

Home | Current Version | Previous Version | Text Only | Print | Product List | Glossary On
Versions: 1 2 3 4 5 6 7 8 9 10 11 12 13 14 15 16 17 18
905
FTUS41 KPHI 271142
TAFTTN
TAF
KTTN 271142Z 2712/2812 09010G18KT P6SM OVC006
      TEMPO 2712/2714 4SM -TSRA OVC006CB
     FM271400 08007KT P6SM VCSH OVC009
     FM272100 08007KT P6SM OVC007 PROB30 2721/2801 4SM -SHRA
     FM280400 08006KT 4SM -DZ OVC005 PROB30 2804/2806 4SM -SHRA=

USA.gov is the U.S. government's official web portal to all federal, state and local government web resources and services.